Aeroporto :
LOGIN :

Iscrizione | Disclaimer

   EN    FR    IT 

 










Sommario :    VFR   VFR Marginale   IFR   IFR Intensivo   IFR Molto Intensivo
Visibilità : 
Base nubi : 
>= 8 km
>= 3000ft
5 / 8 km
1000 / 3000 ft
1500m / 5 km
500 / 1000 ft
800 / 1500m
200 / 500 ft
< 800m
< 200 ft
Simboli :   Temporali  Nebbia  Neve Forte  Precipitazioni Forti  Vento > 20 kt
SIGMETs :   Varie  Temporali  Ghiacco  Turbolenza  Onda orograficha  Ceneri Vulcaniche






- Altitudine del aeroporto : 495 ft
- Codice IATA : BUD


LHBP - Budapest Ferihegy

ULTIMO METAR :
  • 232000Z 11011KT CAVOK 10/06 Q1003 NOSIG

METARs OBSOLETI :
  • 231930Z 11011KT CAVOK 10/06 Q1003 NOSIG
  • 231900Z 11009KT CAVOK 10/06 Q1003 NOSIG
  • 231830Z 11010KT CAVOK 10/06 Q1004 NOSIG
  • 231800Z 11010KT CAVOK 10/06 Q1004 NOSIG
  • 231730Z 12010KT CAVOK 10/06 Q1004 NOSIG
  • 231700Z 12008KT CAVOK 10/06 Q1004 NOSIG
  • 231630Z 12009KT 9999 -RA NSC 11/06 Q1004 NOSIG
  • 231600Z 11009KT CAVOK 11/06 Q1004 NOSIG
  • 231530Z 12010KT CAVOK 11/07 Q1004 NOSIG

TAF TAF LHBP
Valido dal 23 a 18 ore il 24 a 18 ore UTC


231715Z 2318/2418 13009KT CAVOK
TEMPO 2318/2408 -RA BKN040 OVC080
TEMPO 2404/2408 16004KT
BECMG 2408/2411 21007KT
BECMG 2409/2412 FEW040 BKN160
BECMG 2413/2416 15005KT CAVOK



MetMap, La meteo Aeronautica in un colpo d'occhio ! - Copyright ORBIFLY Dicembre 2007 - Disclaimer

ORBIFLY MET'MAP TEAM :

Programmazione e sviluppo : Alexandra Zaïnal
Concezione : Baudouin d'Aumeries
Supporto tecnico e logistico : Manuel Goepfert
Aiuto : Marc-Olivier Méhu
Aiuto per la traduzione : Arnaldo La Scala




FONTI E CREDITI :

   NOAA